SUCCESS DAM (SCC)

Elevation: 692' · TULE R basin · Operator: US Army Corps of Engineers

Provisional data, subject to change.
Query executed Sunday at 7:29:49   clock

Select a sensor type for a plot of data.
Note: Reservoir Flows are daily averages.

Earlier

Date RES ELE    STORAGE    RES CHG    TOC STO    ABV TOC    OUTFLOW    INFLOW    FNF    PPT INC    PPTINC4    TEMP MN    TEMP MX    WINDLEN    EVP PAN   
 FEET   AF   AF   AF   AF   CFS   CFS   CFS   INCHES   INCHES   DEG F   DEG F   MILES   INCHES  
11/22/2014 576.22 3258 -- 10500 -- 1 12 12 0.00 0.00 7 18 36 0.06
11/23/2014 576.30 3278 -- 10500 -- 0 11 11 0.00 0.02 9 18 50 0.05
11/24/2014 576.37 3294 16 10500 -7206 2 11 11 0.00 0.00 5 17 45 0.06
11/25/2014 576.42 3306 12 10500 -7194 3 10 10 0.00 0.00 5 21 47 0.07
11/26/2014 576.48 3321 15 10500 -7179 3 11 11 0.00 0.00 5 23 51 0.08
11/27/2014 576.55 3338 17 10500 -7162 2 11 11 0.00 0.00 6 24 53 0.08
11/28/2014 576.63 3357 19 10500 -7143 1 11 11 0.00 0.00 7 25 54 0.09
11/29/2014 576.70 3374 17 10500 -7126 0 10 10 0.00 0.00 8 23 53 0.09
11/30/2014 576.77 3391 17 10500 -7109 0 10 10 0.00 0.00 7 22 53 0.07
12/01/2014 576.84 3409 18 10500 -7091 0 10 10 0.00 0.00 8 23 49 0.07
12/02/2014 576.99 3445 36 10500 -7055 0 19 19 0.00 0.00 12 18 59 0.03
12/03/2014 577.54 3583 138 10500 -6917 0 70 70 0.00 0.55 11 23 46 0.07
12/04/2014 577.79 3647 64 10500 -6853 0 33 33 0.00 0.01 11 22 56 0.07
12/05/2014 577.96 3690 43 10500 -6810 1 23 23 0.00 0.00 10 20 49 0.05
12/06/2014 578.10 3727 37 10500 -6773 0 20 20 0.00 0.00 9 21 49 0.07
12/07/2014 578.18 3747 20 10500 -6753 5 15 15 0.00 0.00 8 21 47 0.06
12/08/2014 578.19 3750 3 10500 -6750 16 18 18 0.00 0.00 7 20 50 0.06
12/09/2014 578.18 3747 -3 10500 -6753 15 15 15 0.00 0.00 7 18 54 0.06
12/10/2014 578.18 3747 0 10500 -6753 15 15 15 0.00 0.00 7 16 58 0.04
12/11/2014 578.18 3747 0 10500 -6753 14 15 15 0.00 0.00 9 23 68 0.08
12/12/2014 578.48 3826 79 10100 -6274 15 55 55 0.00 0.00 8 23 77 0.07
12/13/2014 579.14 4003 177 9300 -5297 14 104 104 0.00 0.77 6 15 45 0.04
12/14/2014 579.44 4085 82 9300 -5215 14 56 56 0.00 0.00 4 14 47 0.05
12/15/2014 579.62 4135 50 9300 -5165 14 40 -- 0.00 0.00 3 16 57 0.05
12/16/2014 579.74 4168 33 9300 -5132 14 32 -- 0.00 0.08 8 17 48 0.05
12/17/2014 579.90 4213 45 9300 -5087 14 37 -- 0.00 0.14 7 12 57 0.03
12/18/2014 580.13 4278 65 9300 -5022 14 48 -- 0.00 0.00 6 17 54 0.06
12/19/2014 580.28 4320 42 9300 -4980 15 -- -- -- 0.00 6 15 -- 0.04
12/20/2014 580.38 4349 29 9300 -4951 -- -- -- -- 0.00 -- -- -- --
12/21/2014 -- -- -- -- -- -- -- -- -- -- -- -- -- --

Later | Latest

Warning! This data is preliminary and subject to revision.

Show SCC Map | Plot SCC Data | 1 Month SCC Data | Real-Time SCC Data | SCC Info